createdAt,value
2023-04-18T00:01:24.916Z,11.09
2023-04-18T00:03:51.918Z,11.04
2023-04-18T00:06:19.429Z,10.92
2023-04-18T00:08:46.013Z,10.85
2023-04-18T00:11:12.574Z,10.86
2023-04-18T00:13:40.088Z,10.74
2023-04-18T00:16:08.087Z,10.67
2023-04-18T00:18:36.923Z,10.57
2023-04-18T00:21:04.464Z,10.55
2023-04-18T00:23:31.395Z,10.48
2023-04-18T00:25:57.937Z,10.51
2023-04-18T00:28:24.642Z,10.47
2023-04-18T00:30:51.438Z,10.40
2023-04-18T00:33:18.417Z,10.33
2023-04-18T00:35:45.026Z,10.33
2023-04-18T00:38:11.613Z,10.32
2023-04-18T00:40:38.887Z,10.17
2023-04-18T00:43:07.700Z,10.22
2023-04-18T00:45:34.348Z,10.16
2023-04-18T00:48:01.598Z,10.04
2023-04-18T00:50:28.229Z,9.91
2023-04-18T00:52:55.157Z,9.82
2023-04-18T00:55:22.370Z,9.66
2023-04-18T00:57:48.881Z,9.65
2023-04-18T01:00:15.635Z,9.47
2023-04-18T01:02:42.388Z,9.38
2023-04-18T01:05:09.797Z,9.28
2023-04-18T01:07:38.436Z,9.27
2023-04-18T01:10:05.575Z,9.26
2023-04-18T01:12:32.134Z,9.24
2023-04-18T01:15:00.725Z,9.25
2023-04-18T01:17:28.464Z,9.33
2023-04-18T01:19:55.154Z,9.37
2023-04-18T01:22:21.757Z,9.40
2023-04-18T01:24:48.335Z,9.39
2023-04-18T01:27:15.004Z,9.42
2023-04-18T01:29:41.641Z,9.46
2023-04-18T01:32:08.350Z,9.51
2023-04-18T01:34:34.943Z,9.49
2023-04-18T01:37:01.562Z,9.50
2023-04-18T01:39:28.749Z,9.55
2023-04-18T01:41:55.327Z,9.64
2023-04-18T01:44:21.969Z,9.61
2023-04-18T01:46:48.571Z,9.60
2023-04-18T01:49:16.397Z,9.57
2023-04-18T01:51:43.940Z,9.50
2023-04-18T01:54:10.471Z,9.47
2023-04-18T01:56:37.004Z,9.50
2023-04-18T01:59:03.607Z,9.52
2023-04-18T02:01:30.157Z,9.48
2023-04-18T02:03:56.834Z,9.31
2023-04-18T02:06:23.542Z,9.30
2023-04-18T02:08:50.274Z,9.33
2023-04-18T02:11:16.798Z,9.32
2023-04-18T02:13:43.323Z,9.27
2023-04-18T02:16:13.502Z,9.23
2023-04-18T02:18:43.213Z,9.14
2023-04-18T02:21:11.255Z,9.16
2023-04-18T02:23:37.948Z,9.18
2023-04-18T02:26:04.581Z,9.20
2023-04-18T02:28:31.162Z,9.19
2023-04-18T02:31:00.060Z,9.24
2023-04-18T02:33:26.605Z,9.25
2023-04-18T02:35:53.197Z,9.28
2023-04-18T02:38:19.687Z,9.23
2023-04-18T02:40:46.318Z,9.18
2023-04-18T02:43:12.916Z,9.18
2023-04-18T02:45:39.459Z,9.16
2023-04-18T02:48:06.125Z,9.09
2023-04-18T02:50:32.722Z,8.96
2023-04-18T02:52:59.320Z,9.09
2023-04-18T02:55:26.987Z,9.03
2023-04-18T02:57:53.607Z,8.82
2023-04-18T03:00:20.232Z,8.80
2023-04-18T03:02:46.955Z,8.88
2023-04-18T03:05:13.676Z,8.91
2023-04-18T03:07:40.359Z,8.91
2023-04-18T03:10:07.342Z,8.94
2023-04-18T03:12:34.034Z,8.94
2023-04-18T03:15:00.587Z,8.99
2023-04-18T03:17:27.246Z,9.05
2023-04-18T03:19:54.002Z,9.07
2023-04-18T03:22:20.678Z,8.94
2023-04-18T03:24:47.209Z,9.10
2023-04-18T03:27:13.754Z,9.12
2023-04-18T03:29:40.365Z,9.16
2023-04-18T03:32:06.934Z,9.17
2023-04-18T03:34:33.499Z,9.22
2023-04-18T03:37:00.063Z,9.12
2023-04-18T03:39:26.590Z,9.26
2023-04-18T03:41:53.241Z,9.19
2023-04-18T03:44:19.788Z,9.07
2023-04-18T03:46:46.725Z,8.94
2023-04-18T03:49:13.374Z,8.83
2023-04-18T03:51:47.711Z,8.88
2023-04-18T03:54:15.817Z,8.94
2023-04-18T03:56:42.880Z,8.97
2023-04-18T03:59:10.124Z,8.97
2023-04-18T04:01:36.826Z,9.10
2023-04-18T04:04:04.422Z,9.16
2023-04-18T04:06:32.227Z,9.21
2023-04-18T04:08:58.812Z,9.20
2023-04-18T04:11:25.488Z,9.15
2023-04-18T04:13:52.088Z,9.25
2023-04-18T04:16:18.830Z,9.35
2023-04-18T04:18:45.618Z,9.35
2023-04-18T04:21:12.377Z,9.29
2023-04-18T04:23:38.942Z,9.22
2023-04-18T04:26:05.528Z,9.29
2023-04-18T04:28:32.209Z,9.32
2023-04-18T04:30:59.342Z,9.44
2023-04-18T04:33:28.672Z,9.31
2023-04-18T04:35:55.701Z,9.24
2023-04-18T04:38:25.322Z,9.31
2023-04-18T04:40:52.950Z,9.33
2023-04-18T04:43:20.592Z,9.25
2023-04-18T04:45:54.129Z,9.39
2023-04-18T04:48:22.254Z,9.49
2023-04-18T04:50:54.240Z,9.61
2023-04-18T04:53:21.232Z,9.63
2023-04-18T04:55:47.976Z,9.76
2023-04-18T04:58:15.319Z,9.84
2023-04-18T05:00:42.092Z,9.88
2023-04-18T05:03:10.856Z,9.97
2023-04-18T05:05:37.845Z,10.05
2023-04-18T05:08:04.693Z,10.36
2023-04-18T05:10:31.353Z,10.47
2023-04-18T05:12:58.101Z,10.49
2023-04-18T05:15:25.136Z,10.66
2023-04-18T05:17:51.729Z,10.63
2023-04-18T05:20:18.367Z,10.58
2023-04-18T05:22:44.943Z,10.50
2023-04-18T05:25:12.600Z,10.30
2023-04-18T05:27:39.575Z,10.47
2023-04-18T05:30:08.637Z,10.70
2023-04-18T05:32:35.248Z,10.89
2023-04-18T05:35:01.933Z,11.16
2023-04-18T05:37:28.573Z,11.16
2023-04-18T05:39:55.138Z,11.03
2023-04-18T05:42:21.650Z,10.75
2023-04-18T05:44:48.187Z,10.82
2023-04-18T05:47:14.822Z,10.85
2023-04-18T05:49:41.443Z,10.85
2023-04-18T05:52:08.058Z,10.53
2023-04-18T05:54:34.664Z,10.48
2023-04-18T05:57:03.172Z,10.55
2023-04-18T05:59:30.848Z,10.76
2023-04-18T06:01:57.556Z,10.93
2023-04-18T06:04:24.452Z,11.13
2023-04-18T06:06:51.366Z,11.30
2023-04-18T06:09:18.058Z,11.47
2023-04-18T06:11:44.658Z,11.55
2023-04-18T06:14:11.544Z,11.41
2023-04-18T06:16:38.612Z,11.17
2023-04-18T06:19:05.453Z,11.22
2023-04-18T06:21:32.203Z,11.41
2023-04-18T06:23:58.807Z,11.57
2023-04-18T06:26:25.571Z,11.60
2023-04-18T06:28:52.255Z,11.72
2023-04-18T06:31:18.868Z,11.42
2023-04-18T06:33:45.461Z,11.45
2023-04-18T06:36:12.074Z,11.44
2023-04-18T06:38:38.646Z,11.41
2023-04-18T06:41:05.352Z,11.38
2023-04-18T06:43:31.909Z,11.43
2023-04-18T06:45:59.499Z,11.43
2023-04-18T06:48:26.119Z,11.38
2023-04-18T06:50:52.720Z,11.42
2023-04-18T06:53:19.407Z,11.60
2023-04-18T06:55:46.257Z,11.59
2023-04-18T06:58:16.021Z,11.50
2023-04-18T07:00:43.318Z,11.47
2023-04-18T07:03:13.413Z,11.59
2023-04-18T07:05:40.740Z,11.59
2023-04-18T07:08:07.663Z,11.70
2023-04-18T07:10:34.310Z,11.70
2023-04-18T07:13:00.883Z,11.79
2023-04-18T07:15:27.497Z,11.88
2023-04-18T07:17:54.107Z,11.96
2023-04-18T07:20:20.689Z,11.95
2023-04-18T07:22:48.178Z,11.97
2023-04-18T07:25:14.633Z,11.91
2023-04-18T07:27:41.194Z,11.92
2023-04-18T07:30:08.726Z,11.82
2023-04-18T07:32:35.539Z,11.89
2023-04-18T07:35:03.350Z,11.80
2023-04-18T07:37:30.004Z,12.04
2023-04-18T07:39:56.613Z,12.08
2023-04-18T07:42:23.337Z,12.03
2023-04-18T07:44:49.921Z,12.16
2023-04-18T07:47:16.773Z,12.40
2023-04-18T07:49:43.663Z,12.46
2023-04-18T07:52:10.395Z,12.49
2023-04-18T07:54:36.982Z,12.73
2023-04-18T07:57:03.651Z,12.90
2023-04-18T07:59:32.277Z,13.18
2023-04-18T08:01:58.960Z,13.32
2023-04-18T08:04:28.227Z,13.67
2023-04-18T08:06:56.548Z,13.72
2023-04-18T08:09:23.188Z,13.85
2023-04-18T08:11:49.780Z,14.10
2023-04-18T08:14:16.480Z,14.24
2023-04-18T08:16:43.111Z,14.55
2023-04-18T08:19:09.818Z,14.64
2023-04-18T08:21:36.696Z,15.04
2023-04-18T08:24:03.321Z,15.21
2023-04-18T08:26:29.945Z,15.69
2023-04-18T08:28:56.550Z,15.93
2023-04-18T08:31:23.261Z,16.17
2023-04-18T08:33:49.974Z,16.36
2023-04-18T08:36:16.646Z,16.75
2023-04-18T08:38:43.216Z,17.19
2023-04-18T08:41:09.906Z,17.26
2023-04-18T08:43:37.827Z,17.22
2023-04-18T08:46:04.729Z,17.40
2023-04-18T08:48:31.530Z,17.97
2023-04-18T08:50:59.036Z,18.06
2023-04-18T08:53:26.759Z,18.17
2023-04-18T08:55:57.326Z,18.21
2023-04-18T08:58:25.610Z,18.30
2023-04-18T09:00:53.618Z,18.31
2023-04-18T09:03:39.187Z,18.27
2023-04-18T09:06:08.466Z,18.23
2023-04-18T09:08:35.576Z,17.93
2023-04-18T09:11:21.499Z,17.80
2023-04-18T09:13:48.602Z,17.84
2023-04-18T09:16:15.157Z,17.74
2023-04-18T09:18:42.456Z,17.41
2023-04-18T09:21:19.458Z,17.50
2023-04-18T09:23:50.422Z,17.46
2023-04-18T09:26:33.898Z,17.43
2023-04-18T09:29:01.096Z,17.63
2023-04-18T09:31:29.116Z,17.71
2023-04-18T09:33:56.919Z,17.93
2023-04-18T09:36:27.236Z,18.03
2023-04-18T09:38:56.697Z,17.90
2023-04-18T09:41:24.446Z,18.06
2023-04-18T09:44:10.813Z,17.95
2023-04-18T09:46:39.042Z,17.80
2023-04-18T09:49:05.700Z,17.91
2023-04-18T09:51:33.380Z,18.06
2023-04-18T09:54:00.733Z,18.08
2023-04-18T09:56:28.295Z,17.86
2023-04-18T09:59:10.090Z,17.67
2023-04-18T10:01:37.315Z,17.71
2023-04-18T10:04:06.878Z,17.78
2023-04-18T10:06:34.649Z,17.77
2023-04-18T10:09:04.376Z,17.69
2023-04-18T10:11:31.947Z,17.80
2023-04-18T10:14:02.820Z,17.85
2023-04-18T10:16:30.124Z,17.92
2023-04-18T10:18:56.666Z,17.98
2023-04-18T10:21:23.323Z,18.00
2023-04-18T10:23:50.408Z,17.82
2023-04-18T10:26:17.026Z,17.79
2023-04-18T10:28:57.288Z,17.92
2023-04-18T10:31:25.841Z,17.96
2023-04-18T10:36:26.887Z,17.84
2023-04-18T10:38:56.019Z,17.96
2023-04-18T10:41:29.654Z,18.06
2023-04-18T10:44:16.246Z,18.16
2023-04-18T10:47:09.222Z,18.15
2023-04-18T10:49:38.556Z,18.11
2023-04-18T10:52:08.660Z,18.17
2023-04-18T10:55:02.303Z,18.25
2023-04-18T10:57:58.616Z,18.10
2023-04-18T11:00:26.078Z,18.02
2023-04-18T11:02:56.587Z,17.90
2023-04-18T11:05:26.057Z,17.92
2023-04-18T11:07:53.711Z,17.98
2023-04-18T11:10:26.716Z,17.92
2023-04-18T11:12:55.594Z,17.95
2023-04-18T11:15:24.237Z,17.95
2023-04-18T11:18:11.175Z,17.93
2023-04-18T11:20:38.819Z,17.93
2023-04-18T11:23:16.855Z,17.74
2023-04-18T11:25:45.030Z,17.66
2023-04-18T11:28:16.814Z,17.48
2023-04-18T11:30:43.384Z,17.15
2023-04-18T11:33:11.703Z,16.93
2023-04-18T11:35:39.885Z,16.55
2023-04-18T11:38:08.096Z,16.43
2023-04-18T11:40:36.636Z,16.15
2023-04-18T11:43:05.576Z,16.09
2023-04-18T11:45:32.400Z,15.89
2023-04-18T11:48:01.011Z,15.84
2023-04-18T11:50:27.667Z,15.86
2023-04-18T11:52:54.958Z,15.92
2023-04-18T11:55:27.139Z,15.79
2023-04-18T11:57:56.048Z,15.85
2023-04-18T12:00:37.548Z,16.01
2023-04-18T12:03:15.678Z,15.97
2023-04-18T12:05:43.431Z,15.83
2023-04-18T12:08:18.707Z,15.80
2023-04-18T12:10:47.468Z,15.68
2023-04-18T12:13:14.447Z,15.73
2023-04-18T12:15:44.664Z,15.65
2023-04-18T12:18:16.754Z,15.73
2023-04-18T12:20:50.052Z,15.91
2023-04-18T12:23:29.885Z,15.92
2023-04-18T12:26:04.929Z,15.91
2023-04-18T12:28:32.422Z,16.01
2023-04-18T12:30:59.627Z,15.84
2023-04-18T12:33:26.947Z,15.80
2023-04-18T12:35:53.897Z,15.76
2023-04-18T12:38:24.642Z,15.85
2023-04-18T12:40:52.533Z,15.52
2023-04-18T12:43:19.421Z,15.52
2023-04-18T12:45:47.060Z,15.43
2023-04-18T12:48:13.960Z,15.24
2023-04-18T12:50:40.848Z,15.39
2023-04-18T12:53:07.423Z,15.31
2023-04-18T12:55:34.182Z,15.33
2023-04-18T12:58:00.913Z,15.22
2023-04-18T13:00:29.628Z,15.24
2023-04-18T13:02:57.324Z,15.24
2023-04-18T13:05:29.792Z,15.39
2023-04-18T13:08:08.628Z,15.37
2023-04-18T13:10:39.752Z,15.33
2023-04-18T13:13:06.365Z,15.31
2023-04-18T13:15:33.038Z,15.43
2023-04-18T13:18:04.677Z,15.49
2023-04-18T13:20:32.230Z,15.64
2023-04-18T13:22:58.969Z,15.58
2023-04-18T13:25:26.631Z,15.51
2023-04-18T13:27:53.410Z,15.48
2023-04-18T13:30:20.151Z,15.32
2023-04-18T13:32:47.122Z,15.43
2023-04-18T13:35:13.823Z,15.55
2023-04-18T13:37:40.576Z,15.73
2023-04-18T13:40:08.012Z,15.73
2023-04-18T13:42:36.742Z,15.78
2023-04-18T13:45:03.876Z,15.76
2023-04-18T13:47:30.610Z,15.51
2023-04-18T13:49:57.875Z,15.53
2023-04-18T13:52:24.720Z,15.63
2023-04-18T13:54:51.245Z,15.72
2023-04-18T13:57:17.895Z,15.64
2023-04-18T13:59:44.623Z,15.58
2023-04-18T14:02:11.371Z,15.89
2023-04-18T14:04:38.290Z,16.06
2023-04-18T14:07:06.364Z,16.22
2023-04-18T14:09:33.622Z,16.39
2023-04-18T14:12:00.261Z,16.26
2023-04-18T14:14:26.925Z,16.37
2023-04-18T14:16:54.064Z,16.38
2023-04-18T14:19:20.987Z,16.23
2023-04-18T14:21:48.248Z,16.32
2023-04-18T14:24:14.924Z,16.27
2023-04-18T14:26:41.779Z,16.20
2023-04-18T14:29:08.464Z,16.12
2023-04-18T14:31:35.289Z,15.87
2023-04-18T14:34:02.205Z,15.77
2023-04-18T14:36:28.924Z,15.79
2023-04-18T14:38:55.478Z,15.76
2023-04-18T14:41:22.148Z,15.73
2023-04-18T14:43:48.862Z,15.74
2023-04-18T14:46:16.750Z,15.70
2023-04-18T14:48:47.337Z,15.69
2023-04-18T14:51:15.955Z,15.51
2023-04-18T14:53:42.680Z,15.55
2023-04-18T14:56:09.371Z,15.32
2023-04-18T14:58:36.256Z,15.31
2023-04-18T15:01:04.166Z,15.23
2023-04-18T15:03:31.157Z,15.14
2023-04-18T15:05:58.003Z,15.09
2023-04-18T15:08:24.744Z,15.06
2023-04-18T15:10:51.353Z,14.82
2023-04-18T15:13:18.069Z,14.70
2023-04-18T15:15:54.441Z,14.55
2023-04-18T15:18:21.296Z,14.45
2023-04-18T15:20:48.126Z,14.30
2023-04-18T15:23:15.523Z,14.16
2023-04-18T15:25:42.692Z,14.09
2023-04-18T15:28:09.286Z,13.92
2023-04-18T15:30:36.362Z,13.81
2023-04-18T15:33:02.993Z,13.80
2023-04-18T15:35:29.781Z,13.90
2023-04-18T15:37:57.480Z,13.86
2023-04-18T15:40:24.313Z,13.94
2023-04-18T15:42:53.563Z,14.05
2023-04-18T15:45:21.455Z,14.00
2023-04-18T15:47:48.299Z,13.81
2023-04-18T15:50:16.353Z,13.68
2023-04-18T15:52:43.493Z,13.78
2023-04-18T15:55:13.546Z,13.69
2023-04-18T15:57:40.668Z,13.35
2023-04-18T16:00:16.107Z,13.37
2023-04-18T16:02:46.853Z,13.06
2023-04-18T16:05:14.362Z,12.88
2023-04-18T16:07:42.233Z,12.93
2023-04-18T16:10:10.671Z,13.06
2023-04-18T16:12:38.229Z,13.10
2023-04-18T16:15:07.053Z,13.03
2023-04-18T16:17:33.819Z,12.84
2023-04-18T16:20:00.534Z,12.98
2023-04-18T16:22:27.293Z,13.10
2023-04-18T16:24:54.086Z,12.89
2023-04-18T16:27:20.720Z,12.80
2023-04-18T16:29:47.434Z,12.78
2023-04-18T16:32:14.155Z,12.96
2023-04-18T16:34:40.865Z,12.95
2023-04-18T16:37:07.580Z,13.02
2023-04-18T16:39:34.188Z,13.01
2023-04-18T16:42:01.568Z,12.97
2023-04-18T16:44:28.062Z,13.04
2023-04-18T16:46:54.836Z,13.00
2023-04-18T16:49:21.772Z,13.00
2023-04-18T16:51:49.052Z,13.11
2023-04-18T16:54:16.311Z,13.22
2023-04-18T16:56:44.803Z,13.25
2023-04-18T16:59:11.565Z,13.26
2023-04-18T17:01:38.374Z,13.23
2023-04-18T17:04:05.374Z,13.17
2023-04-18T17:06:32.766Z,13.21
2023-04-18T17:08:59.307Z,13.11
2023-04-18T17:11:26.564Z,13.06
2023-04-18T17:13:53.181Z,13.11
2023-04-18T17:16:20.088Z,13.10
2023-04-18T17:18:46.790Z,13.10
2023-04-18T17:21:13.438Z,13.16
2023-04-18T17:23:42.476Z,13.08
2023-04-18T17:26:09.938Z,13.23
2023-04-18T17:28:36.927Z,13.24
2023-04-18T17:31:03.947Z,13.19
2023-04-18T17:33:31.172Z,13.16
2023-04-18T17:35:58.488Z,13.16
2023-04-18T17:38:25.154Z,13.14
2023-04-18T17:41:02.124Z,13.15
2023-04-18T17:43:28.822Z,13.13
2023-04-18T17:45:56.003Z,13.08
2023-04-18T17:48:22.622Z,13.14
2023-04-18T17:50:49.409Z,13.06
2023-04-18T17:53:17.434Z,13.00
2023-04-18T17:55:46.805Z,13.01
2023-04-18T17:58:13.615Z,12.99
2023-04-18T18:00:40.176Z,13.00
2023-04-18T18:03:08.942Z,13.02
2023-04-18T18:05:35.643Z,13.02
2023-04-18T18:08:02.356Z,13.00
2023-04-18T18:10:29.361Z,12.93
2023-04-18T18:12:56.185Z,12.92
2023-04-18T18:15:24.171Z,12.91
2023-04-18T18:17:52.017Z,12.94
2023-04-18T18:20:19.537Z,12.78
2023-04-18T18:22:46.303Z,12.93
2023-04-18T18:25:12.965Z,12.91
2023-04-18T18:27:39.475Z,12.96
2023-04-18T18:30:06.729Z,13.02
2023-04-18T18:32:33.187Z,13.04
2023-04-18T18:34:59.974Z,13.12
2023-04-18T18:37:26.763Z,13.15
2023-04-18T18:39:56.463Z,13.15
2023-04-18T18:42:23.084Z,13.14
2023-04-18T18:44:49.624Z,13.14
2023-04-18T18:47:16.869Z,13.16
2023-04-18T18:49:43.293Z,13.17
2023-04-18T18:52:09.720Z,13.16
2023-04-18T18:54:36.167Z,13.17
2023-04-18T18:57:02.789Z,13.14
2023-04-18T18:59:29.590Z,13.14
2023-04-18T19:01:56.097Z,13.14
2023-04-18T19:04:22.875Z,13.10
2023-04-18T19:06:49.455Z,13.10
2023-04-18T19:09:16.142Z,12.98
2023-04-18T19:11:42.654Z,13.03
2023-04-18T19:14:09.207Z,13.06
2023-04-18T19:16:36.104Z,13.04
2023-04-18T19:19:02.597Z,13.05
2023-04-18T19:21:29.077Z,13.03
2023-04-18T19:23:55.828Z,13.08
2023-04-18T19:26:23.132Z,13.09
2023-04-18T19:28:49.630Z,13.04
2023-04-18T19:31:16.092Z,12.97
2023-04-18T19:33:42.665Z,12.99
2023-04-18T19:36:09.215Z,12.95
2023-04-18T19:38:35.872Z,12.92
2023-04-18T19:41:02.355Z,12.93
2023-04-18T19:43:28.855Z,12.96
2023-04-18T19:45:55.447Z,12.98
2023-04-18T19:48:21.998Z,12.94
2023-04-18T19:50:49.673Z,12.90
2023-04-18T19:53:16.352Z,12.79
2023-04-18T19:55:44.423Z,12.82
2023-04-18T19:58:10.928Z,12.84
2023-04-18T20:00:37.948Z,12.87
2023-04-18T20:03:05.080Z,12.86
2023-04-18T20:05:31.896Z,12.86
2023-04-18T20:07:58.406Z,12.86
2023-04-18T20:10:24.876Z,12.83
2023-04-18T20:12:51.408Z,12.79
2023-04-18T20:15:17.909Z,12.77
2023-04-18T20:17:44.429Z,12.79
2023-04-18T20:20:11.475Z,12.75
2023-04-18T20:22:40.269Z,12.61
2023-04-18T20:25:07.049Z,12.70
2023-04-18T20:27:33.536Z,12.69
2023-04-18T20:30:00.015Z,12.71
2023-04-18T20:32:26.716Z,12.75
2023-04-18T20:34:53.524Z,12.73
2023-04-18T20:37:20.239Z,12.65
2023-04-18T20:39:47.554Z,12.69
2023-04-18T20:42:14.360Z,12.66
2023-04-18T20:44:42.986Z,12.57
2023-04-18T20:47:09.414Z,12.60
2023-04-18T20:49:36.236Z,12.49
2023-04-18T20:52:02.735Z,12.50
2023-04-18T20:54:29.191Z,12.50
2023-04-18T20:56:55.763Z,12.52
2023-04-18T20:59:22.236Z,12.48
2023-04-18T21:01:48.737Z,12.27
2023-04-18T21:04:15.573Z,12.18
2023-04-18T21:06:42.828Z,12.15
2023-04-18T21:09:09.383Z,12.19
2023-04-18T21:11:36.010Z,12.26
2023-04-18T21:14:03.835Z,12.31
2023-04-18T21:16:31.480Z,12.32
2023-04-18T21:18:58.135Z,12.38
2023-04-18T21:21:24.620Z,12.24
2023-04-18T21:23:51.221Z,12.27
2023-04-18T21:26:17.679Z,12.29
2023-04-18T21:28:56.543Z,12.30
2023-04-18T21:31:23.303Z,12.27
2023-04-18T21:33:53.596Z,12.28
2023-04-18T21:36:20.142Z,12.29
2023-04-18T21:38:46.669Z,12.22
2023-04-18T21:41:16.961Z,12.23
2023-04-18T21:43:43.864Z,12.24
2023-04-18T21:46:11.686Z,12.26
2023-04-18T21:48:38.919Z,12.15
2023-04-18T21:51:05.691Z,12.17
2023-04-18T21:53:32.207Z,12.17
2023-04-18T21:55:58.653Z,11.88
2023-04-18T21:58:25.236Z,11.88
2023-04-18T22:00:51.664Z,11.89
2023-04-18T22:03:18.328Z,11.93
2023-04-18T22:05:47.236Z,11.94
2023-04-18T22:08:16.752Z,11.99
2023-04-18T22:10:44.778Z,12.03
2023-04-18T22:13:11.424Z,11.91
2023-04-18T22:15:39.797Z,11.93
2023-04-18T22:18:08.498Z,11.97
2023-04-18T22:20:39.003Z,12.00
2023-04-18T22:23:07.060Z,12.05
2023-04-18T22:25:33.890Z,11.99
2023-04-18T22:28:01.711Z,12.07
2023-04-18T22:30:28.278Z,12.05
2023-04-18T22:32:54.777Z,12.05
2023-04-18T22:35:21.401Z,12.05
2023-04-18T22:37:47.935Z,11.98
2023-04-18T22:40:14.393Z,12.03
2023-04-18T22:42:40.789Z,12.11
2023-04-18T22:45:07.503Z,12.02
2023-04-18T22:47:34.018Z,12.02
2023-04-18T22:50:00.584Z,12.05
2023-04-18T22:52:27.060Z,12.05
2023-04-18T22:54:53.509Z,11.99
2023-04-18T22:57:20.003Z,12.05
2023-04-18T22:59:46.431Z,12.01
2023-04-18T23:02:14.025Z,11.99
2023-04-18T23:04:44.349Z,12.01
2023-04-18T23:07:11.036Z,12.09
2023-04-18T23:09:37.468Z,12.09
2023-04-18T23:12:04.034Z,12.00
2023-04-18T23:14:30.500Z,11.98
2023-04-18T23:16:56.957Z,11.96
2023-04-18T23:19:23.382Z,11.94
2023-04-18T23:21:49.927Z,11.92
2023-04-18T23:24:16.532Z,11.93
2023-04-18T23:26:43.036Z,11.82
2023-04-18T23:29:09.462Z,11.86
2023-04-18T23:31:35.960Z,11.87
2023-04-18T23:34:02.416Z,11.82
2023-04-18T23:36:28.826Z,11.78
2023-04-18T23:38:55.343Z,11.69
2023-04-18T23:41:21.833Z,11.72
2023-04-18T23:43:48.281Z,11.69
2023-04-18T23:46:15.452Z,11.61
2023-04-18T23:48:41.988Z,11.67
2023-04-18T23:51:08.443Z,11.68
2023-04-18T23:53:34.834Z,11.66
2023-04-18T23:56:01.225Z,11.63
2023-04-18T23:58:27.700Z,11.61
